Time;durP1;ratioP1;P1;durP2;ratioP2;P2;SDS_P1;SDS_P2;PMS_P1;PMS_P2;Temp;Humidity;BMP_temperature;BMP_pressure;BME280_temperature;BME280_humidity;BME280_pressure;Samples;Min_cycle;Max_cycle;Signal;HPM_P1;HPM_P2
2022/01/05 00:01:42;;;;;;;3.17;2.10;;;;;;;;;;5074257;28;20448;-69
2022/01/05 00:04:10;;;;;;;4.13;2.57;;;;;;;;;;5074079;28;20487;-69
2022/01/05 00:06:37;;;;;;;2.20;2.00;;;;;;;;;;5074181;28;20467;-69
2022/01/05 00:09:05;;;;;;;3.00;2.43;;;;;;;;;;5074235;28;20807;-70
2022/01/05 00:11:32;;;;;;;3.43;3.13;;;;;;;;;;5074057;28;20448;-69
2022/01/05 00:13:59;;;;;;;4.37;2.50;;;;;;;;;;5074075;28;20448;-70
2022/01/05 00:16:26;;;;;;;4.53;3.10;;;;;;;;;;5073886;28;20844;-70
2022/01/05 00:18:54;;;;;;;4.17;3.00;;;;;;;;;;5074089;28;20469;-70
2022/01/05 00:21:21;;;;;;;3.27;2.60;;;;;;;;;;5073951;28;20501;-70
2022/01/05 00:23:48;;;;;;;4.27;3.53;;;;;;;;;;5073767;28;20487;-70
2022/01/05 00:26:17;;;;;;;3.97;3.50;;;;;;;;;;5073788;28;20479;-70
2022/01/05 00:28:44;;;;;;;4.20;3.80;;;;;;;;;;5073723;28;20949;-70
2022/01/05 00:31:11;;;;;;;4.73;3.33;;;;;;;;;;5073848;28;20456;-70
2022/01/05 00:33:38;;;;;;;3.60;3.17;;;;;;;;;;5073459;28;20443;-70
2022/01/05 00:36:05;;;;;;;2.90;2.40;;;;;;;;;;5073732;28;20463;-70
2022/01/05 00:38:34;;;;;;;3.13;2.83;;;;;;;;;;5073139;28;20451;-69
2022/01/05 00:41:01;;;;;;;3.47;3.03;;;;;;;;;;5073711;28;20452;-69
2022/01/05 00:43:30;;;;;;;3.07;2.53;;;;;;;;;;5073168;28;20455;-70
2022/01/05 00:45:57;;;;;;;3.97;2.60;;;;;;;;;;5073438;28;20548;-70
2022/01/05 00:48:24;;;;;;;2.30;1.80;;;;;;;;;;5073393;28;20451;-70
2022/01/05 00:50:51;;;;;;;2.20;2.00;;;;;;;;;;5073377;28;20454;-70
2022/01/05 00:53:18;;;;;;;1.90;1.70;;;;;;;;;;5073368;28;20460;-70
2022/01/05 00:55:45;;;;;;;1.50;1.23;;;;;;;;;;5073109;28;20972;-70
2022/01/05 00:58:12;;;;;;;2.23;1.27;;;;;;;;;;5073335;28;20458;-70
2022/01/05 01:00:41;;;;;;;1.97;1.50;;;;;;;;;;5073281;28;20451;-70
2022/01/05 01:03:08;;;;;;;1.60;1.30;;;;;;;;;;5073161;28;20455;-70
2022/01/05 01:05:35;;;;;;;1.37;1.13;;;;;;;;;;5072593;28;21031;-70
2022/01/05 01:08:02;;;;;;;1.43;1.07;;;;;;;;;;5073244;28;20937;-70
2022/01/05 01:10:29;;;;;;;1.73;1.20;;;;;;;;;;5072997;28;20459;-70
2022/01/05 01:12:56;;;;;;;1.30;0.90;;;;;;;;;;5073156;28;20447;-70
2022/01/05 01:15:24;;;;;;;2.00;1.17;;;;;;;;;;5072779;28;20468;-70
2022/01/05 01:17:52;;;;;;;1.47;1.03;;;;;;;;;;5073035;28;20439;-70
2022/01/05 01:20:20;;;;;;;1.57;1.07;;;;;;;;;;5072493;28;20451;-70
2022/01/05 01:22:47;;;;;;;1.43;1.00;;;;;;;;;;5073026;28;20443;-70
2022/01/05 01:25:14;;;;;;;1.43;1.00;;;;;;;;;;5072547;28;20491;-70
2022/01/05 01:27:43;;;;;;;1.50;1.00;;;;;;;;;;5072781;28;20447;-70
2022/01/05 01:30:10;;;;;;;1.60;1.40;;;;;;;;;;5072805;28;20562;-70
2022/01/05 01:32:38;;;;;;;4.03;1.40;;;;;;;;;;5072723;28;20820;-70
2022/01/05 01:35:07;;;;;;;2.83;2.23;;;;;;;;;;5072908;28;20479;-71
2022/01/05 01:37:35;;;;;;;3.47;2.53;;;;;;;;;;5072294;28;20814;-70
2022/01/05 01:40:02;;;;;;;6.13;3.20;;;;;;;;;;5072889;28;20451;-70
2022/01/05 01:42:29;;;;;;;4.40;3.57;;;;;;;;;;5072739;28;20458;-70
2022/01/05 01:44:56;;;;;;;7.67;5.47;;;;;;;;;;5072404;28;20491;-70
2022/01/05 01:47:23;;;;;;;10.13;6.20;;;;;;;;;;5072740;28;20818;-70
2022/01/05 01:49:50;;;;;;;9.37;6.37;;;;;;;;;;5072848;28;20448;-70
2022/01/05 01:52:19;;;;;;;8.70;6.70;;;;;;;;;;5072708;28;20963;-70
2022/01/05 01:54:46;;;;;;;7.43;5.40;;;;;;;;;;5072306;28;20474;-70
2022/01/05 01:57:14;;;;;;;10.37;6.60;;;;;;;;;;5072714;28;20463;-70
2022/01/05 01:59:41;;;;;;;7.90;5.47;;;;;;;;;;5072442;28;20463;-70
2022/01/05 02:02:08;;;;;;;6.57;4.77;;;;;;;;;;5072689;28;20458;-69
2022/01/05 02:04:36;;;;;;;4.90;4.00;;;;;;;;;;5072159;28;20479;-70
2022/01/05 02:07:04;;;;;;;4.07;3.00;;;;;;;;;;5072302;28;20464;-70
2022/01/05 02:09:32;;;;;;;4.37;3.47;;;;;;;;;;5072515;28;20454;-70
2022/01/05 02:11:59;;;;;;;3.50;2.30;;;;;;;;;;5072623;28;20975;-70
2022/01/05 02:14:26;;;;;;;2.80;2.27;;;;;;;;;;5072305;28;20443;-70
2022/01/05 02:16:55;;;;;;;2.30;2.00;;;;;;;;;;5072382;28;20455;-70
2022/01/05 02:19:23;;;;;;;2.83;2.53;;;;;;;;;;5072423;28;20562;-70
2022/01/05 02:21:51;;;;;;;2.20;1.93;;;;;;;;;;5072509;28;20452;-70
2022/01/05 02:24:18;;;;;;;2.80;2.13;;;;;;;;;;5072069;28;20491;-70
2022/01/05 02:26:45;;;;;;;2.10;1.70;;;;;;;;;;5072215;28;20448;-70
2022/01/05 02:29:13;;;;;;;2.43;1.70;;;;;;;;;;5072302;28;20466;-70
2022/01/05 02:31:40;;;;;;;2.20;1.90;;;;;;;;;;5073252;28;20455;-70
2022/01/05 02:34:07;;;;;;;2.23;1.90;;;;;;;;;;5075855;28;20483;-70
2022/01/05 02:36:34;;;;;;;1.87;1.53;;;;;;;;;;5075358;28;20472;-70
2022/01/05 02:39:02;;;;;;;1.90;1.53;;;;;;;;;;5076010;28;20448;-70
2022/01/05 02:41:29;;;;;;;1.83;1.43;;;;;;;;;;5075781;28;20447;-70
2022/01/05 02:43:57;;;;;;;1.70;1.40;;;;;;;;;;5075698;28;20976;-70
2022/01/05 02:46:24;;;;;;;3.30;1.80;;;;;;;;;;5075655;28;20471;-70
2022/01/05 02:48:52;;;;;;;1.90;1.67;;;;;;;;;;5076140;28;20447;-70
2022/01/05 02:51:19;;;;;;;2.70;1.60;;;;;;;;;;5075797;28;20514;-70
2022/01/05 02:53:47;;;;;;;3.23;1.70;;;;;;;;;;5075382;28;20471;-70
2022/01/05 02:56:15;;;;;;;2.10;1.90;;;;;;;;;;5075568;28;20468;-70
2022/01/05 02:58:43;;;;;;;2.87;1.77;;;;;;;;;;5075580;28;20447;-70
2022/01/05 03:01:10;;;;;;;2.47;1.63;;;;;;;;;;5075507;28;20464;-70
2022/01/05 03:03:37;;;;;;;1.93;1.50;;;;;;;;;;5075307;28;20474;-70
2022/01/05 03:06:04;;;;;;;2.10;1.50;;;;;;;;;;5075260;28;20498;-70
2022/01/05 03:08:31;;;;;;;2.63;1.77;;;;;;;;;;5075334;28;20459;-70
2022/01/05 03:10:59;;;;;;;2.37;1.80;;;;;;;;;;5075463;28;20456;-70
2022/01/05 03:13:28;;;;;;;1.97;1.63;;;;;;;;;;5075057;28;20447;-70
2022/01/05 03:15:56;;;;;;;2.30;1.83;;;;;;;;;;5075227;28;20812;-70
2022/01/05 03:18:23;;;;;;;1.97;1.50;;;;;;;;;;5075287;28;20874;-70
2022/01/05 03:20:50;;;;;;;1.83;1.50;;;;;;;;;;5075130;28;20444;-70
2022/01/05 03:23:17;;;;;;;2.57;2.03;;;;;;;;;;5075122;28;20452;-70
2022/01/05 03:25:45;;;;;;;3.30;1.77;;;;;;;;;;5074810;28;20514;-70
2022/01/05 03:28:12;;;;;;;2.50;2.00;;;;;;;;;;5075115;28;20944;-70
2022/01/05 03:30:41;;;;;;;2.10;1.70;;;;;;;;;;5075005;28;20458;-70
2022/01/05 03:33:11;;;;;;;1.77;1.50;;;;;;;;;;5074988;28;20444;-70
2022/01/05 03:35:39;;;;;;;1.80;1.17;;;;;;;;;;5074515;28;20511;-70
2022/01/05 03:38:07;;;;;;;2.37;1.73;;;;;;;;;;5074437;28;20798;-70
2022/01/05 03:40:35;;;;;;;1.90;1.40;;;;;;;;;;5074744;28;20450;-70
2022/01/05 03:43:03;;;;;;;1.80;1.37;;;;;;;;;;5074396;28;20448;-70
2022/01/05 03:45:30;;;;;;;2.30;2.10;;;;;;;;;;5074392;28;21007;-69
2022/01/05 03:47:58;;;;;;;2.10;1.50;;;;;;;;;;5074758;28;20460;-69
2022/01/05 03:50:25;;;;;;;2.70;1.90;;;;;;;;;;5074608;28;20455;-70
2022/01/05 03:52:53;;;;;;;2.70;2.00;;;;;;;;;;5074829;28;20815;-70
2022/01/05 03:55:20;;;;;;;3.00;1.93;;;;;;;;;;5074482;28;20478;-70
2022/01/05 03:57:47;;;;;;;1.70;1.40;;;;;;;;;;5074589;28;20452;-70
2022/01/05 04:00:14;;;;;;;2.30;2.00;;;;;;;;;;5074517;28;20456;-70
2022/01/05 04:02:41;;;;;;;2.30;1.80;;;;;;;;;;5074338;28;20462;-70
2022/01/05 04:05:10;;;;;;;2.33;1.83;;;;;;;;;;5074149;28;20492;-69
2022/01/05 04:07:37;;;;;;;3.37;2.30;;;;;;;;;;5074169;28;20459;-70
2022/01/05 04:10:05;;;;;;;2.40;2.03;;;;;;;;;;5074151;28;20820;-69
2022/01/05 04:12:32;;;;;;;3.17;1.90;;;;;;;;;;5074224;28;20817;-70
2022/01/05 04:14:59;;;;;;;2.03;1.50;;;;;;;;;;5073938;28;20464;-70
2022/01/05 04:17:26;;;;;;;2.00;1.70;;;;;;;;;;5074093;28;20452;-70
2022/01/05 04:19:53;;;;;;;2.60;1.97;;;;;;;;;;5074121;28;20448;-70
2022/01/05 04:22:22;;;;;;;1.93;1.60;;;;;;;;;;5073935;28;20451;-70
2022/01/05 04:24:49;;;;;;;1.97;1.77;;;;;;;;;;5073505;28;20491;-70
2022/01/05 04:27:16;;;;;;;5.23;2.80;;;;;;;;;;5073948;28;20451;-70
2022/01/05 04:29:43;;;;;;;2.37;1.63;;;;;;;;;;5073666;28;20472;-70
2022/01/05 04:32:11;;;;;;;3.27;1.80;;;;;;;;;;5073795;28;20452;-70
2022/01/05 04:34:38;;;;;;;2.30;2.00;;;;;;;;;;5073338;28;20995;-70
2022/01/05 04:37:05;;;;;;;2.10;1.57;;;;;;;;;;5073216;28;20846;-70
2022/01/05 04:39:34;;;;;;;1.80;1.30;;;;;;;;;;5073492;28;20817;-70
2022/01/05 04:42:01;;;;;;;3.30;2.20;;;;;;;;;;5073493;28;20462;-70
2022/01/05 04:44:28;;;;;;;3.97;2.23;;;;;;;;;;5073088;28;20959;-70
2022/01/05 04:46:55;;;;;;;2.00;1.60;;;;;;;;;;5073466;28;20491;-70
2022/01/05 04:49:22;;;;;;;2.20;1.67;;;;;;;;;;5073334;28;20463;-70
2022/01/05 04:51:50;;;;;;;2.17;1.80;;;;;;;;;;5073272;28;20448;-70
2022/01/05 04:54:17;;;;;;;1.93;1.40;;;;;;;;;;5072225;28;20463;-70
2022/01/05 04:56:45;;;;;;;4.30;1.30;;;;;;;;;;5073222;28;20444;-70
2022/01/05 04:59:13;;;;;;;1.70;1.20;;;;;;;;;;5073284;28;20810;-70
2022/01/05 05:01:40;;;;;;;3.13;1.60;;;;;;;;;;5073151;28;20459;-70
2022/01/05 05:04:07;;;;;;;3.70;2.50;;;;;;;;;;5072948;28;20463;-70
2022/01/05 05:06:34;;;;;;;2.50;1.40;;;;;;;;;;5072924;28;20857;-70
2022/01/05 05:09:01;;;;;;;2.00;1.30;;;;;;;;;;5073249;28;20933;-69
2022/01/05 05:11:28;;;;;;;1.70;1.37;;;;;;;;;;5072932;28;20454;-70
2022/01/05 05:13:57;;;;;;;1.40;1.00;;;;;;;;;;5072794;28;20451;-70
2022/01/05 05:16:24;;;;;;;1.87;1.37;;;;;;;;;;5073049;28;20475;-70
2022/01/05 05:18:51;;;;;;;2.10;1.70;;;;;;;;;;5073018;28;20938;-70
2022/01/05 05:21:18;;;;;;;1.60;1.23;;;;;;;;;;5072946;28;20455;-69
2022/01/05 05:23:45;;;;;;;1.70;1.10;;;;;;;;;;5072827;28;20443;-70
2022/01/05 05:26:12;;;;;;;1.60;1.23;;;;;;;;;;5072843;28;20491;-70
2022/01/05 05:28:39;;;;;;;3.07;1.50;;;;;;;;;;5072798;28;20835;-70
2022/01/05 05:31:08;;;;;;;4.70;2.70;;;;;;;;;;5073019;28;20452;-69
2022/01/05 05:33:35;;;;;;;1.37;1.00;;;;;;;;;;5072606;28;20448;-69
2022/01/05 05:36:03;;;;;;;1.93;1.30;;;;;;;;;;5072758;28;20472;-69
2022/01/05 05:38:30;;;;;;;1.50;1.20;;;;;;;;;;5072497;28;20867;-70
2022/01/05 05:40:57;;;;;;;1.60;1.30;;;;;;;;;;5072860;28;20456;-70
2022/01/05 05:43:24;;;;;;;5.90;1.20;;;;;;;;;;5072756;28;20545;-70
2022/01/05 05:45:51;;;;;;;1.93;1.20;;;;;;;;;;5072553;28;20494;-70
2022/01/05 05:48:20;;;;;;;1.67;1.20;;;;;;;;;;5072683;28;20447;-70
2022/01/05 05:50:47;;;;;;;4.73;3.00;;;;;;;;;;5072538;28;20451;-70
2022/01/05 05:53:14;;;;;;;1.30;1.00;;;;;;;;;;5072534;28;20459;-70
2022/01/05 05:55:41;;;;;;;1.40;1.10;;;;;;;;;;5072148;28;20470;-70
2022/01/05 05:58:08;;;;;;;1.40;1.10;;;;;;;;;;5072583;28;20460;-70
2022/01/05 06:00:35;;;;;;;1.50;1.13;;;;;;;;;;5072497;28;20459;-70
2022/01/05 06:03:03;;;;;;;1.40;1.10;;;;;;;;;;5072577;28;20451;-70
2022/01/05 06:05:32;;;;;;;1.70;1.03;;;;;;;;;;5072888;28;20491;-70
2022/01/05 06:07:59;;;;;;;1.83;1.20;;;;;;;;;;5076566;28;20456;-70
2022/01/05 06:10:27;;;;;;;1.53;1.20;;;;;;;;;;5076654;28;20456;-70
2022/01/05 06:12:54;;;;;;;1.47;1.20;;;;;;;;;;5076501;28;20455;-70
2022/01/05 06:15:21;;;;;;;1.83;1.13;;;;;;;;;;5076128;28;20475;-70
2022/01/05 06:17:48;;;;;;;1.30;0.90;;;;;;;;;;5076543;28;20461;-70
2022/01/05 06:20:15;;;;;;;1.60;1.10;;;;;;;;;;5076428;28;20458;-70
2022/01/05 06:22:44;;;;;;;1.43;1.17;;;;;;;;;;5076193;28;20816;-70
2022/01/05 06:25:12;;;;;;;1.50;1.17;;;;;;;;;;5075806;28;20491;-70
2022/01/05 06:27:39;;;;;;;1.77;1.30;;;;;;;;;;5076082;28;20550;-70
2022/01/05 06:30:08;;;;;;;4.40;2.40;;;;;;;;;;5076073;28;20459;-70
2022/01/05 06:32:35;;;;;;;1.60;1.30;;;;;;;;;;5075945;28;20458;-71
2022/01/05 06:35:03;;;;;;;2.53;1.60;;;;;;;;;;5075747;28;20482;-71
2022/01/05 06:37:30;;;;;;;4.47;2.70;;;;;;;;;;5075823;28;20443;-71
2022/01/05 06:39:58;;;;;;;2.63;2.03;;;;;;;;;;5076243;28;20913;-70
2022/01/05 06:42:25;;;;;;;2.50;1.60;;;;;;;;;;5075948;28;20448;-70
2022/01/05 06:44:52;;;;;;;4.17;2.40;;;;;;;;;;5075531;28;20478;-70
2022/01/05 06:47:19;;;;;;;2.10;1.53;;;;;;;;;;5075973;28;20487;-70
2022/01/05 06:49:46;;;;;;;2.00;1.67;;;;;;;;;;5075801;28;20467;-70
2022/01/05 06:52:14;;;;;;;2.57;1.83;;;;;;;;;;5075866;28;20936;-70
2022/01/05 06:54:41;;;;;;;6.93;3.43;;;;;;;;;;5075351;28;20499;-70
2022/01/05 06:57:10;;;;;;;4.07;2.50;;;;;;;;;;5075934;28;20823;-70
2022/01/05 06:59:37;;;;;;;2.43;1.80;;;;;;;;;;5075557;28;20482;-70
2022/01/05 07:02:05;;;;;;;3.20;2.57;;;;;;;;;;5075579;28;20459;-70
2022/01/05 07:04:32;;;;;;;2.30;1.70;;;;;;;;;;5075222;28;20458;-70
2022/01/05 07:07:00;;;;;;;1.60;1.20;;;;;;;;;;5075470;28;20483;-70
2022/01/05 07:09:27;;;;;;;2.07;1.80;;;;;;;;;;5075645;28;20456;-70
2022/01/05 07:11:54;;;;;;;1.70;1.60;;;;;;;;;;5075521;28;20443;-70
2022/01/05 07:14:23;;;;;;;1.60;1.30;;;;;;;;;;5075107;28;20948;-70
2022/01/05 07:16:51;;;;;;;1.60;1.40;;;;;;;;;;5074798;28;20944;-70
2022/01/05 07:19:19;;;;;;;1.80;1.40;;;;;;;;;;5075136;28;20447;-70
2022/01/05 07:21:46;;;;;;;1.40;1.20;;;;;;;;;;5075186;28;20474;-70
2022/01/05 07:24:17;;;;;;;2.10;1.63;;;;;;;;;;5075014;28;20455;-70
2022/01/05 07:26:45;;;;;;;2.20;1.50;;;;;;;;;;5075061;28;20491;-70
2022/01/05 07:29:12;;;;;;;1.70;1.20;;;;;;;;;;5075145;28;20520;-70
2022/01/05 07:31:40;;;;;;;1.60;1.20;;;;;;;;;;5075013;28;20459;-70
2022/01/05 07:34:07;;;;;;;1.60;1.13;;;;;;;;;;5074931;28;20448;-70
2022/01/05 07:36:35;;;;;;;1.30;1.00;;;;;;;;;;5074267;28;20467;-70
2022/01/05 07:39:03;;;;;;;2.77;1.40;;;;;;;;;;5072641;28;20456;-70
2022/01/05 07:41:30;;;;;;;1.53;1.13;;;;;;;;;;5072916;28;20451;-70
2022/01/05 07:43:57;;;;;;;1.93;1.30;;;;;;;;;;5073603;28;20459;-70
2022/01/05 07:46:24;;;;;;;1.77;0.90;;;;;;;;;;5072869;28;20491;-71
2022/01/05 07:48:53;;;;;;;1.60;1.13;;;;;;;;;;5073746;28;20816;-70
2022/01/05 07:51:20;;;;;;;1.27;0.90;;;;;;;;;;5073277;28;20454;-70
2022/01/05 07:53:47;;;;;;;3.87;1.17;;;;;;;;;;5072979;28;20455;-70
2022/01/05 07:56:14;;;;;;;1.27;1.00;;;;;;;;;;5073296;28;20463;-70
2022/01/05 07:58:41;;;;;;;1.70;1.20;;;;;;;;;;5073149;28;20505;-70
2022/01/05 08:01:08;;;;;;;1.10;0.70;;;;;;;;;;5072962;28;20452;-70
2022/01/05 08:03:37;;;;;;;1.40;1.00;;;;;;;;;;5072869;28;20463;-70
2022/01/05 08:06:06;;;;;;;1.10;0.70;;;;;;;;;;5072910;28;20496;-70
2022/01/05 08:08:33;;;;;;;1.30;0.83;;;;;;;;;;5072426;28;20451;-70
2022/01/05 08:11:00;;;;;;;2.20;1.30;;;;;;;;;;5072962;28;20443;-71
2022/01/05 08:13:27;;;;;;;1.43;1.00;;;;;;;;;;5072822;28;20451;-70
2022/01/05 08:15:55;;;;;;;1.47;1.10;;;;;;;;;;5072909;28;20475;-70
2022/01/05 08:18:22;;;;;;;2.27;1.53;;;;;;;;;;5072795;28;20474;-70
2022/01/05 08:20:49;;;;;;;1.40;0.90;;;;;;;;;;5072791;28;20452;-70
2022/01/05 08:23:19;;;;;;;3.00;1.20;;;;;;;;;;5072478;28;20973;-70
2022/01/05 08:25:46;;;;;;;2.30;1.70;;;;;;;;;;5072250;28;20467;-70
2022/01/05 08:28:13;;;;;;;6.20;1.80;;;;;;;;;;5072338;28;20455;-70
2022/01/05 08:30:40;;;;;;;1.90;1.20;;;;;;;;;;5072189;28;20447;-70
2022/01/05 08:33:08;;;;;;;12.70;1.50;;;;;;;;;;5072620;28;20452;-71
2022/01/05 08:35:35;;;;;;;1.90;1.53;;;;;;;;;;5072087;28;20847;-70
2022/01/05 08:38:02;;;;;;;2.10;1.30;;;;;;;;;;5071693;28;20448;-70
2022/01/05 08:40:31;;;;;;;1.20;0.87;;;;;;;;;;5072144;28;20506;-70
2022/01/05 08:42:59;;;;;;;1.50;0.93;;;;;;;;;;5072536;28;20932;-70
2022/01/05 08:45:26;;;;;;;3.93;2.23;;;;;;;;;;5071940;28;20471;-70
2022/01/05 08:47:54;;;;;;;2.90;1.30;;;;;;;;;;5072201;28;20487;-70
2022/01/05 08:50:22;;;;;;;1.70;0.93;;;;;;;;;;5072296;28;20455;-70
2022/01/05 08:52:49;;;;;;;2.23;1.20;;;;;;;;;;5072310;28;20456;-70
2022/01/05 08:55:17;;;;;;;1.90;1.37;;;;;;;;;;5072014;28;20467;-70
2022/01/05 08:57:45;;;;;;;1.30;1.03;;;;;;;;;;5071863;28;20448;-70
2022/01/05 09:00:13;;;;;;;1.40;0.90;;;;;;;;;;5071772;28;20455;-70
2022/01/05 09:02:40;;;;;;;1.20;0.80;;;;;;;;;;5071896;28;20456;-70
2022/01/05 09:05:08;;;;;;;1.20;0.83;;;;;;;;;;5071856;28;20482;-70
2022/01/05 09:07:35;;;;;;;2.00;0.87;;;;;;;;;;5071659;28;21125;-70
2022/01/05 09:10:04;;;;;;;2.47;1.20;;;;;;;;;;5071851;28;20821;-70
2022/01/05 09:12:31;;;;;;;1.10;0.80;;;;;;;;;;5071791;28;20547;-70
2022/01/05 09:14:59;;;;;;;1.20;0.90;;;;;;;;;;5071410;28;20475;-70
2022/01/05 09:17:27;;;;;;;1.20;0.80;;;;;;;;;;5071658;28;20806;-70
2022/01/05 09:19:55;;;;;;;1.30;1.00;;;;;;;;;;5071835;28;20757;-70
2022/01/05 09:22:22;;;;;;;1.40;0.90;;;;;;;;;;5071443;28;20965;-70
2022/01/05 09:24:49;;;;;;;1.63;1.07;;;;;;;;;;5071545;28;20482;-70
2022/01/05 09:27:17;;;;;;;1.20;0.90;;;;;;;;;;5071635;28;20487;-70
2022/01/05 09:29:44;;;;;;;1.50;1.00;;;;;;;;;;5071175;28;20583;-70
2022/01/05 09:32:13;;;;;;;1.20;0.90;;;;;;;;;;5071578;28;20840;-70
2022/01/05 09:34:41;;;;;;;1.50;0.90;;;;;;;;;;5071274;28;20460;-70
2022/01/05 09:37:13;;;;;;;1.50;1.00;;;;;;;;;;5070938;28;20448;-70
2022/01/05 09:42:25;;;;;;;3.27;1.90;;;;;;;;;;5071477;28;20486;-70
2022/01/05 09:44:53;;;;;;;1.80;1.33;;;;;;;;;;5070995;28;20476;-70
2022/01/05 09:47:39;;;;;;;1.30;0.80;;;;;;;;;;5071265;28;20483;-70
2022/01/05 09:50:10;;;;;;;1.43;0.90;;;;;;;;;;5071441;28;20462;-70
2022/01/05 09:52:37;;;;;;;1.70;1.07;;;;;;;;;;5065491;28;20476;-70
2022/01/05 09:55:06;;;;;;;2.83;1.20;;;;;;;;;;5067844;28;20837;-70
2022/01/05 09:57:33;;;;;;;2.30;1.00;;;;;;;;;;5070926;28;20448;-70
2022/01/05 10:00:01;;;;;;;1.23;0.90;;;;;;;;;;5071054;28;20459;-70
2022/01/05 10:02:30;;;;;;;2.30;1.20;;;;;;;;;;5070949;28;20825;-70
2022/01/05 10:04:57;;;;;;;2.23;1.40;;;;;;;;;;5070537;28;20906;-70
2022/01/05 10:07:24;;;;;;;1.90;1.40;;;;;;;;;;5069928;28;20491;-70
2022/01/05 10:09:52;;;;;;;1.83;1.43;;;;;;;;;;5070890;28;20538;-70
2022/01/05 10:12:19;;;;;;;1.40;1.10;;;;;;;;;;5070556;28;20455;-70
2022/01/05 10:14:47;;;;;;;1.90;1.40;;;;;;;;;;5070442;28;20472;-70
2022/01/05 10:17:15;;;;;;;1.93;1.17;;;;;;;;;;5071003;28;20447;-70
2022/01/05 10:19:44;;;;;;;1.80;1.37;;;;;;;;;;5070749;28;20967;-70
2022/01/05 10:22:32;;;;;;;1.30;0.90;;;;;;;;;;5071051;28;20459;-70
2022/01/05 10:24:59;;;;;;;1.87;1.10;;;;;;;;;;5070691;28;20558;-70
2022/01/05 10:27:27;;;;;;;1.90;1.50;;;;;;;;;;5070752;28;21000;-71
2022/01/05 10:29:55;;;;;;;2.77;1.90;;;;;;;;;;5070852;28;20471;-70
2022/01/05 10:32:22;;;;;;;1.80;1.30;;;;;;;;;;5070712;28;20455;-70
2022/01/05 10:35:06;;;;;;;3.40;1.20;;;;;;;;;;5070913;28;20478;-70
2022/01/05 10:37:33;;;;;;;3.03;1.93;;;;;;;;;;5070051;28;20455;-70
2022/01/05 10:40:05;;;;;;;2.73;1.23;;;;;;;;;;5071138;28;20460;-70
2022/01/05 10:42:33;;;;;;;2.27;1.60;;;;;;;;;;5071367;28;20463;-70
2022/01/05 10:45:01;;;;;;;2.03;1.50;;;;;;;;;;5072111;28;20467;-70
2022/01/05 10:47:29;;;;;;;3.60;2.47;;;;;;;;;;5072106;28;20487;-70
2022/01/05 10:49:56;;;;;;;1.80;1.60;;;;;;;;;;5072025;28;20459;-70
2022/01/05 10:52:26;;;;;;;2.00;1.33;;;;;;;;;;5072671;28;20455;-70
2022/01/05 10:54:53;;;;;;;2.30;1.53;;;;;;;;;;5075500;28;20472;-71
2022/01/05 10:57:20;;;;;;;1.83;1.53;;;;;;;;;;5075819;28;20450;-70
2022/01/05 10:59:49;;;;;;;2.00;1.40;;;;;;;;;;5075813;28;20444;-70
2022/01/05 11:02:22;;;;;;;3.63;2.13;;;;;;;;;;5075651;28;20451;-70
2022/01/05 11:04:49;;;;;;;1.93;1.60;;;;;;;;;;5075293;28;20822;-70
2022/01/05 11:07:20;;;;;;;2.67;1.90;;;;;;;;;;5075541;28;20487;-70
2022/01/05 11:09:54;;;;;;;2.60;2.00;;;;;;;;;;5075649;28;20456;-70
2022/01/05 11:12:21;;;;;;;5.90;3.37;;;;;;;;;;5075560;28;20456;-70
2022/01/05 11:14:48;;;;;;;5.13;2.40;;;;;;;;;;5075240;28;20464;-70
2022/01/05 11:17:18;;;;;;;4.10;2.20;;;;;;;;;;5075317;28;20490;-70
2022/01/05 11:19:45;;;;;;;4.10;2.43;;;;;;;;;;5075282;28;20448;-70
2022/01/05 11:22:14;;;;;;;3.03;2.00;;;;;;;;;;5075284;28;20448;-69
2022/01/05 11:24:42;;;;;;;5.00;2.00;;;;;;;;;;5074831;28;21004;-70
2022/01/05 11:27:11;;;;;;;3.23;2.93;;;;;;;;;;5075390;28;20509;-70
2022/01/05 11:29:39;;;;;;;2.80;2.07;;;;;;;;;;5074948;28;20957;-70
2022/01/05 11:32:07;;;;;;;3.53;2.37;;;;;;;;;;5075177;28;20451;-70
2022/01/05 11:34:34;;;;;;;3.30;2.63;;;;;;;;;;5074695;28;20443;-70
2022/01/05 11:37:02;;;;;;;3.10;1.93;;;;;;;;;;5074818;28;20833;-70
2022/01/05 11:39:31;;;;;;;3.73;2.37;;;;;;;;;;5074971;28;20443;-70
2022/01/05 11:41:59;;;;;;;7.60;2.70;;;;;;;;;;5075010;28;20961;-70
2022/01/05 11:44:29;;;;;;;4.80;2.17;;;;;;;;;;5074691;28;20832;-70
2022/01/05 11:46:57;;;;;;;3.40;2.73;;;;;;;;;;5075115;28;20446;-70
2022/01/05 11:49:28;;;;;;;2.57;2.30;;;;;;;;;;5074883;28;20452;-70
2022/01/05 11:51:58;;;;;;;4.43;2.97;;;;;;;;;;5074861;28;20447;-70
2022/01/05 11:54:25;;;;;;;6.43;4.13;;;;;;;;;;5074477;28;20455;-70
2022/01/05 11:56:54;;;;;;;4.30;2.90;;;;;;;;;;5074711;28;20448;-70
2022/01/05 11:59:35;;;;;;;4.20;2.90;;;;;;;;;;5074624;28;20448;-70
2022/01/05 12:02:03;;;;;;;4.83;2.67;;;;;;;;;;5074538;28;20502;-70
2022/01/05 12:04:32;;;;;;;3.23;2.50;;;;;;;;;;5073389;28;20454;-71
2022/01/05 12:07:03;;;;;;;3.30;3.00;;;;;;;;;;5074354;28;20449;-71
2022/01/05 12:09:31;;;;;;;4.27;3.03;;;;;;;;;;5074274;28;20949;-71
2022/01/05 12:12:00;;;;;;;7.80;3.20;;;;;;;;;;5074329;28;20452;-71
2022/01/05 12:14:47;;;;;;;4.60;3.37;;;;;;;;;;5073911;28;21012;-71
2022/01/05 12:17:15;;;;;;;2.87;2.47;;;;;;;;;;5074275;28;20836;-71
2022/01/05 12:19:57;;;;;;;4.23;2.60;;;;;;;;;;5074010;28;20881;-71
2022/01/05 12:22:25;;;;;;;6.20;2.50;;;;;;;;;;5065353;28;20471;-71
2022/01/05 12:25:06;;;;;;;3.53;2.67;;;;;;;;;;5073793;28;20468;-71
2022/01/05 12:27:37;;;;;;;6.17;3.50;;;;;;;;;;5073692;28;20487;-71
2022/01/05 12:30:25;;;;;;;2.77;2.13;;;;;;;;;;5073862;28;21038;-71
2022/01/05 12:33:03;;;;;;;2.53;2.33;;;;;;;;;;5073764;28;20455;-71
2022/01/05 12:35:43;;;;;;;2.30;2.10;;;;;;;;;;5073487;28;20467;-71
2022/01/05 12:38:11;;;;;;;3.00;2.40;;;;;;;;;;5073483;28;20542;-70
2022/01/05 12:40:38;;;;;;;8.30;4.30;;;;;;;;;;5073720;28;20456;-70
2022/01/05 12:43:24;;;;;;;4.47;2.90;;;;;;;;;;5073707;28;20789;-71
2022/01/05 12:45:52;;;;;;;4.10;2.40;;;;;;;;;;5072421;28;20471;-71
2022/01/05 12:48:39;;;;;;;3.00;2.70;;;;;;;;;;5072940;28;21012;-71
2022/01/05 12:51:25;;;;;;;11.33;2.87;;;;;;;;;;5073395;28;20455;-71
2022/01/05 12:53:56;;;;;;;6.37;3.53;;;;;;;;;;5073174;28;20550;-70
2022/01/05 12:56:23;;;;;;;4.37;2.20;;;;;;;;;;5073365;28;20475;-70
2022/01/05 12:58:51;;;;;;;3.00;2.70;;;;;;;;;;5073469;28;20814;-71
2022/01/05 13:01:19;;;;;;;5.10;3.90;;;;;;;;;;5072827;28;20529;-71
2022/01/05 13:03:46;;;;;;;4.10;2.67;;;;;;;;;;5073249;28;20961;-71
2022/01/05 13:06:14;;;;;;;3.17;2.47;;;;;;;;;;5073178;28;20486;-70
2022/01/05 13:08:46;;;;;;;4.77;2.83;;;;;;;;;;5073225;28;20495;-71
2022/01/05 13:11:17;;;;;;;4.17;2.80;;;;;;;;;;5073265;28;20458;-71
2022/01/05 13:13:45;;;;;;;3.03;2.23;;;;;;;;;;5072978;28;20455;-71
2022/01/05 13:16:12;;;;;;;5.13;2.60;;;;;;;;;;5072426;28;20991;-71
2022/01/05 13:18:39;;;;;;;3.67;2.30;;;;;;;;;;5073134;28;20452;-71
2022/01/05 13:21:07;;;;;;;4.20;2.57;;;;;;;;;;5073116;28;20576;-71
2022/01/05 13:23:34;;;;;;;5.60;3.13;;;;;;;;;;5072898;28;21010;-71
2022/01/05 13:26:09;;;;;;;6.60;3.03;;;;;;;;;;5073039;28;20474;-71
2022/01/05 13:28:39;;;;;;;3.70;2.50;;;;;;;;;;5072688;28;20999;-71
2022/01/05 13:31:10;;;;;;;6.13;2.97;;;;;;;;;;5072906;28;20921;-71
2022/01/05 13:33:38;;;;;;;5.00;3.17;;;;;;;;;;5072521;28;20479;-71
2022/01/05 13:36:06;;;;;;;3.87;2.33;;;;;;;;;;5072831;28;20471;-71
2022/01/05 13:38:33;;;;;;;3.40;2.13;;;;;;;;;;5069639;28;20812;-71
2022/01/05 13:41:04;;;;;;;2.50;1.77;;;;;;;;;;5071216;28;20452;-71
2022/01/05 13:43:31;;;;;;;4.33;2.47;;;;;;;;;;5071242;28;20451;-71
2022/01/05 13:46:00;;;;;;;3.57;2.97;;;;;;;;;;5071994;28;20472;-71
2022/01/05 13:48:28;;;;;;;2.47;1.97;;;;;;;;;;5072812;28;20505;-71
2022/01/05 13:50:56;;;;;;;4.23;2.13;;;;;;;;;;5072503;28;21022;-71
2022/01/05 13:53:24;;;;;;;2.43;2.00;;;;;;;;;;5072712;28;20990;-71
2022/01/05 13:55:52;;;;;;;4.27;3.13;;;;;;;;;;5072728;28;21010;-71
2022/01/05 13:58:20;;;;;;;3.13;2.70;;;;;;;;;;5072624;28;20451;-70
2022/01/05 14:00:49;;;;;;;6.57;2.87;;;;;;;;;;5072544;28;20812;-70
2022/01/05 14:03:30;;;;;;;2.33;2.10;;;;;;;;;;5072600;28;20451;-70
2022/01/05 14:05:58;;;;;;;3.30;2.70;;;;;;;;;;5072595;28;20851;-70
2022/01/05 14:08:29;;;;;;;2.17;1.97;;;;;;;;;;5071987;28;20848;-70
2022/01/05 14:11:03;;;;;;;2.57;1.63;;;;;;;;;;5072592;28;20455;-70
2022/01/05 14:13:30;;;;;;;3.17;2.03;;;;;;;;;;5072420;28;20460;-70
2022/01/05 14:15:59;;;;;;;5.47;2.40;;;;;;;;;;5072508;28;20472;-70
2022/01/05 14:18:27;;;;;;;3.90;2.97;;;;;;;;;;5072344;28;20460;-70
2022/01/05 14:20:55;;;;;;;3.97;2.10;;;;;;;;;;5072485;28;20447;-70
2022/01/05 14:23:22;;;;;;;3.37;2.30;;;;;;;;;;5072370;28;20819;-70
2022/01/05 14:25:57;;;;;;;2.80;2.07;;;;;;;;;;5072175;28;20472;-70
2022/01/05 14:28:25;;;;;;;4.47;2.57;;;;;;;;;;5075886;28;20487;-70
2022/01/05 14:30:54;;;;;;;4.67;3.40;;;;;;;;;;5076329;28;20955;-70
2022/01/05 14:33:42;;;;;;;7.77;2.63;;;;;;;;;;5076153;28;20452;-70
2022/01/05 14:36:19;;;;;;;4.47;2.23;;;;;;;;;;5076084;28;20525;-70
2022/01/05 14:39:00;;;;;;;8.50;4.23;;;;;;;;;;5075861;28;20927;-70
2022/01/05 14:41:34;;;;;;;3.00;2.40;;;;;;;;;;5076323;28;20848;-70
2022/01/05 14:44:06;;;;;;;5.50;2.23;;;;;;;;;;5075888;28;20457;-70
2022/01/05 14:46:35;;;;;;;12.67;4.20;;;;;;;;;;5075921;28;20475;-70
2022/01/05 14:49:02;;;;;;;8.80;3.70;;;;;;;;;;5075915;28;20923;-70
2022/01/05 14:51:31;;;;;;;4.23;2.97;;;;;;;;;;5075798;28;20467;-70
2022/01/05 14:53:59;;;;;;;7.30;2.30;;;;;;;;;;5075949;28;20935;-70